createdAt,value
2019-05-10T00:03:21.937Z,22.72
2019-05-10T00:08:43.659Z,22.71
2019-05-10T00:13:48.779Z,22.72
2019-05-10T00:18:52.375Z,22.71
2019-05-10T00:23:55.805Z,22.70
2019-05-10T00:28:59.276Z,22.71
2019-05-10T00:34:02.751Z,22.71
2019-05-10T00:39:07.363Z,22.70
2019-05-10T00:44:10.836Z,22.70
2019-05-10T00:49:14.304Z,22.69
2019-05-10T00:54:17.780Z,22.70
2019-05-10T00:59:21.251Z,22.69
2019-05-10T01:04:24.719Z,22.68
2019-05-10T01:09:28.203Z,22.67
2019-05-10T01:14:31.667Z,22.68
2019-05-10T01:19:35.479Z,22.67
2019-05-10T01:24:38.953Z,22.66
2019-05-10T01:29:42.419Z,22.66
2019-05-10T01:34:45.888Z,22.66
2019-05-10T01:39:49.367Z,22.65
2019-05-10T01:44:52.842Z,22.65
2019-05-10T01:49:56.323Z,22.64
2019-05-10T01:54:59.786Z,22.64
2019-05-10T02:00:04.955Z,22.63
2019-05-10T02:05:08.862Z,22.63
2019-05-10T02:10:12.883Z,22.63
2019-05-10T02:15:16.595Z,22.63
2019-05-10T02:25:22.478Z,22.62
2019-05-10T02:35:28.360Z,22.61
2019-05-10T02:40:31.902Z,22.60
2019-05-10T02:45:35.372Z,22.61
2019-05-10T02:50:38.846Z,22.59
2019-05-10T02:55:43.299Z,22.60
2019-05-10T03:00:48.763Z,22.59
2019-05-10T03:05:53.759Z,22.60
2019-05-10T03:10:58.481Z,22.59
2019-05-10T03:16:04.892Z,22.59
2019-05-10T03:21:10.450Z,22.58
2019-05-10T03:26:13.914Z,22.58
2019-05-10T03:31:17.368Z,22.57
2019-05-10T03:36:20.823Z,22.57
2019-05-10T03:41:24.556Z,22.57
2019-05-10T03:46:27.994Z,22.58
2019-05-10T03:51:31.454Z,22.57
2019-05-10T03:56:34.922Z,22.56
2019-05-10T04:01:38.371Z,22.57
2019-05-10T04:06:41.829Z,22.54
2019-05-10T04:11:45.367Z,22.56
2019-05-10T04:16:48.813Z,22.56
2019-05-10T04:21:52.290Z,22.55
2019-05-10T04:26:55.741Z,22.53
2019-05-10T04:31:59.200Z,22.54
2019-05-10T04:37:02.662Z,22.53
2019-05-10T04:42:06.118Z,22.53
2019-05-10T04:47:09.647Z,22.53
2019-05-10T04:52:13.103Z,22.52
2019-05-10T04:57:16.558Z,22.52
2019-05-10T05:02:22.321Z,22.51
2019-05-10T05:07:25.192Z,22.53
2019-05-10T05:12:28.651Z,22.52
2019-05-10T05:17:32.110Z,22.53
2019-05-10T05:22:35.556Z,22.52
2019-05-10T05:27:39.028Z,22.51
2019-05-10T05:32:44.639Z,22.51
2019-05-10T05:37:47.690Z,22.51
2019-05-10T05:42:51.124Z,22.51
2019-05-10T05:47:54.595Z,22.50
2019-05-10T05:52:58.047Z,22.52
2019-05-10T05:58:04.860Z,22.55
2019-05-10T06:03:06.680Z,22.54
2019-05-10T06:08:23.061Z,22.56
2019-05-10T06:13:15.418Z,22.56
2019-05-10T06:18:18.888Z,22.56
2019-05-10T06:23:22.352Z,22.57
2019-05-10T06:28:32.689Z,22.57
2019-05-10T06:33:31.002Z,22.57
2019-05-10T06:38:34.478Z,22.58
2019-05-10T06:48:40.443Z,22.63
2019-05-10T06:53:52.086Z,22.63
2019-05-10T06:58:49.118Z,22.63
2019-05-10T07:08:57.920Z,22.62
2019-05-10T07:14:00.307Z,22.56
2019-05-10T07:19:03.774Z,22.37
2019-05-10T07:24:07.235Z,22.37
2019-05-10T07:29:10.691Z,22.45
2019-05-10T07:34:15.744Z,22.47
2019-05-10T07:39:19.328Z,22.48
2019-05-10T07:44:22.785Z,22.49
2019-05-10T07:49:30.084Z,22.41
2019-05-10T07:54:31.423Z,22.36
2019-05-10T07:59:49.421Z,22.31
2019-05-10T08:04:40.070Z,22.28
2019-05-10T08:09:45.229Z,22.25
2019-05-10T08:14:50.170Z,22.23
2019-05-10T08:19:53.888Z,22.22
2019-05-10T08:24:57.345Z,22.19
2019-05-10T08:30:20.668Z,22.23
2019-05-10T08:35:16.437Z,22.25
2019-05-10T08:40:13.576Z,22.25
2019-05-10T08:45:17.041Z,22.28
2019-05-10T08:50:34.558Z,22.30
2019-05-10T08:55:25.675Z,22.29
2019-05-10T09:00:45.114Z,22.28
2019-05-10T09:05:34.984Z,22.27
2019-05-10T09:10:38.450Z,22.25
2019-05-10T09:15:51.322Z,22.26
2019-05-10T09:20:47.323Z,22.25
2019-05-10T09:25:51.892Z,22.25
2019-05-10T09:31:00.793Z,22.26
2019-05-10T09:36:02.795Z,22.27
2019-05-10T09:41:05.988Z,22.30
2019-05-10T09:46:11.469Z,22.33
2019-05-10T09:51:19.111Z,22.34
2019-05-10T09:56:19.812Z,22.34
2019-05-10T10:01:23.270Z,22.33
2019-05-10T10:06:29.557Z,22.36
2019-05-10T10:11:31.919Z,22.38
2019-05-10T10:16:35.373Z,22.41
2019-05-10T10:21:39.064Z,22.45
2019-05-10T10:26:42.659Z,22.49
2019-05-10T10:31:52.970Z,22.53
2019-05-10T10:36:51.295Z,22.55
2019-05-10T10:41:56.915Z,22.56
2019-05-10T10:46:59.935Z,22.59
2019-05-10T10:52:05.556Z,22.59
2019-05-10T10:57:08.563Z,22.60
2019-05-10T11:02:33.343Z,22.61
2019-05-10T11:07:17.211Z,22.63
2019-05-10T11:12:23.958Z,22.63
2019-05-10T11:17:25.844Z,22.64
2019-05-10T11:22:31.584Z,22.65
2019-05-10T11:27:34.471Z,22.57
2019-05-10T11:32:37.928Z,22.65
2019-05-10T11:37:45.306Z,22.66
2019-05-10T11:42:47.615Z,22.68
2019-05-10T11:47:57.145Z,22.67
2019-05-10T11:52:56.480Z,22.69
2019-05-10T11:58:03.367Z,22.69
2019-05-10T12:03:11.447Z,22.69
2019-05-10T12:08:12.944Z,22.69
2019-05-10T12:18:26.510Z,22.69
2019-05-10T12:23:31.285Z,22.70
2019-05-10T12:26:27.645Z,22.69
2019-05-10T12:28:35.303Z,22.65
2019-05-10T12:33:36.225Z,22.69
2019-05-10T12:38:39.679Z,22.68
2019-05-10T12:43:43.639Z,22.68
2019-05-10T12:48:47.275Z,22.67
2019-05-10T12:53:52.071Z,22.68
2019-05-10T12:58:57.705Z,22.68
2019-05-10T13:04:02.083Z,22.69
2019-05-10T13:09:07.666Z,22.68
2019-05-10T13:14:11.124Z,22.70
2019-05-10T13:19:20.140Z,22.69
2019-05-10T13:24:19.794Z,22.70
2019-05-10T13:29:23.207Z,22.71
2019-05-10T13:34:26.671Z,22.72
2019-05-10T13:39:30.194Z,22.72
2019-05-10T13:44:37.206Z,22.73
2019-05-10T13:49:38.839Z,22.71
2019-05-10T13:54:42.283Z,22.70
2019-05-10T13:59:48.811Z,22.70
2019-05-10T14:04:50.916Z,22.69
2019-05-10T14:09:54.403Z,22.69
2019-05-10T14:15:02.384Z,22.69
2019-05-10T14:20:05.792Z,22.69
2019-05-10T14:25:09.579Z,22.69
2019-05-10T14:30:15.812Z,22.68
2019-05-10T14:35:22.638Z,22.68
2019-05-10T14:40:31.019Z,22.68
2019-05-10T14:45:28.727Z,22.68
2019-05-10T14:50:32.185Z,22.70
2019-05-10T14:55:36.989Z,22.70
2019-05-10T15:00:40.569Z,22.73
2019-05-10T15:05:49.036Z,22.75
2019-05-10T15:10:49.218Z,22.75
2019-05-10T15:15:52.674Z,22.75
2019-05-10T15:20:56.134Z,22.73
2019-05-10T15:26:10.038Z,22.73
2019-05-10T15:31:04.882Z,22.73
2019-05-10T15:36:08.313Z,22.74
2019-05-10T15:41:16.839Z,22.73
2019-05-10T15:46:16.950Z,22.75
2019-05-10T15:51:34.877Z,22.77
2019-05-10T15:56:25.579Z,22.77
2019-05-10T16:01:29.320Z,22.79
2019-05-10T16:06:37.834Z,22.79
2019-05-10T16:11:37.967Z,22.79
2019-05-10T16:16:41.439Z,22.81
2019-05-10T16:21:46.836Z,22.81
2019-05-10T16:26:54.586Z,22.83
2019-05-10T16:31:55.330Z,22.82
2019-05-10T16:36:58.802Z,22.83
2019-05-10T16:42:02.256Z,22.83
2019-05-10T16:47:05.719Z,22.84
2019-05-10T16:52:09.175Z,22.85
2019-05-10T16:57:12.634Z,22.85
2019-05-10T17:02:16.089Z,22.84
2019-05-10T17:07:20.641Z,22.85
2019-05-10T17:12:27.503Z,22.85
2019-05-10T17:17:31.249Z,22.85
2019-05-10T17:22:34.647Z,22.84
2019-05-10T17:27:38.274Z,22.84
2019-05-10T17:32:41.728Z,22.83
2019-05-10T17:37:45.183Z,22.83
2019-05-10T17:42:51.480Z,22.83
2019-05-10T17:47:53.821Z,22.82
2019-05-10T17:52:57.283Z,22.81
2019-05-10T17:58:00.746Z,22.80
2019-05-10T18:03:04.475Z,22.80
2019-05-10T18:08:07.935Z,22.80
2019-05-10T18:13:11.397Z,22.79
2019-05-10T18:18:14.853Z,22.80
2019-05-10T18:23:21.013Z,22.79
2019-05-10T18:28:23.501Z,22.78
2019-05-10T18:33:26.962Z,22.76
2019-05-10T18:38:31.037Z,22.76
2019-05-10T18:43:40.639Z,22.76
2019-05-10T18:48:40.793Z,22.75
2019-05-10T18:53:44.247Z,22.75
2019-05-10T18:58:47.707Z,22.73
2019-05-10T19:03:51.175Z,22.74
2019-05-10T19:08:54.653Z,22.74
2019-05-10T19:13:58.137Z,22.73
2019-05-10T19:19:03.427Z,22.73
2019-05-10T19:24:06.746Z,22.72
2019-05-10T19:29:10.201Z,22.73
2019-05-10T19:34:15.415Z,22.74
2019-05-10T19:39:18.837Z,22.74
2019-05-10T19:44:22.291Z,22.74
2019-05-10T19:49:25.743Z,22.74
2019-05-10T19:54:29.200Z,22.74
2019-05-10T19:59:32.834Z,22.73
2019-05-10T20:04:36.298Z,22.74
2019-05-10T20:09:39.758Z,22.74
2019-05-10T20:14:43.216Z,22.74
2019-05-10T20:19:46.675Z,22.74
2019-05-10T20:24:50.123Z,22.75
2019-05-10T20:29:53.574Z,22.74
2019-05-10T20:34:57.040Z,22.74
2019-05-10T20:40:00.492Z,22.73
2019-05-10T20:45:08.147Z,22.74
2019-05-10T20:50:10.038Z,22.73
2019-05-10T20:55:13.981Z,22.73
2019-05-10T21:00:18.003Z,22.73
2019-05-10T21:05:21.480Z,22.73
2019-05-10T21:10:24.908Z,22.73
2019-05-10T21:15:28.362Z,22.74
2019-05-10T21:20:31.820Z,22.73
2019-05-10T21:25:35.545Z,22.73
2019-05-10T21:30:38.999Z,22.73
2019-05-10T21:35:42.451Z,22.73
2019-05-10T21:40:45.913Z,22.73
2019-05-10T21:45:49.372Z,22.73
2019-05-10T21:50:52.830Z,22.73
2019-05-10T21:55:56.283Z,22.73
2019-05-10T22:00:59.745Z,22.72
2019-05-10T22:06:03.206Z,22.72
2019-05-10T22:11:06.667Z,22.72
2019-05-10T22:16:10.128Z,22.73
2019-05-10T22:21:13.579Z,22.72
2019-05-10T22:26:17.035Z,22.72
2019-05-10T22:31:20.488Z,22.72
2019-05-10T22:36:23.944Z,22.71
2019-05-10T22:41:27.407Z,22.72
2019-05-10T22:46:30.859Z,22.73
2019-05-10T22:51:34.321Z,22.72
2019-05-10T22:56:37.771Z,22.72
2019-05-10T23:01:41.229Z,22.72
2019-05-10T23:06:44.704Z,22.70
2019-05-10T23:11:48.171Z,22.69
2019-05-10T23:16:51.649Z,22.69
2019-05-10T23:21:55.125Z,22.69
2019-05-10T23:26:58.591Z,22.68
2019-05-10T23:32:02.072Z,22.67
2019-05-10T23:37:05.543Z,22.67
2019-05-10T23:42:09.022Z,22.66
2019-05-10T23:47:12.503Z,22.67
2019-05-10T23:52:15.967Z,22.67
2019-05-10T23:57:19.444Z,22.66
